Time;durP1;ratioP1;P1;durP2;ratioP2;P2;SDS_P1;SDS_P2;PMS_P1;PMS_P2;Temp;Humidity;BMP_temperature;BMP_pressure;BME280_temperature;BME280_humidity;BME280_pressure;Samples;Min_cycle;Max_cycle;Signal;HPM_P1;HPM_P2
2024/02/16 00:01:29;;;;;;;24.70;12.93;;;7.80;99.90;;;;;;5032844;28;20656;-77
2024/02/16 00:04:17;;;;;;;24.57;12.20;;;7.80;99.90;;;;;;5031233;28;20202;-77
2024/02/16 00:07:05;;;;;;;20.87;11.87;;;7.80;99.90;;;;;;5018799;28;20282;-76
2024/02/16 00:09:53;;;;;;;21.13;11.50;;;7.70;99.90;;;;;;5033023;28;20214;-76
2024/02/16 00:12:40;;;;;;;20.37;11.63;;;7.80;99.90;;;;;;5032525;28;20696;-77
2024/02/16 00:15:27;;;;;;;22.30;11.47;;;7.80;99.90;;;;;;5031490;28;20199;-77
2024/02/16 00:18:15;;;;;;;21.27;11.63;;;7.80;99.90;;;;;;5031385;28;20710;-77
2024/02/16 00:21:03;;;;;;;23.27;11.43;;;7.80;99.90;;;;;;5004470;28;20209;-77
2024/02/16 00:23:50;;;;;;;24.60;11.23;;;7.80;99.90;;;;;;5030996;28;20210;-76
2024/02/16 00:26:41;;;;;;;19.20;11.03;;;7.80;99.90;;;;;;5031682;28;20577;-77
2024/02/16 00:29:28;;;;;;;21.37;10.47;;;7.80;99.90;;;;;;5031259;28;20213;-78
2024/02/16 00:32:16;;;;;;;22.17;10.67;;;7.80;99.90;;;;;;5031217;28;20226;-77
2024/02/16 00:35:04;;;;;;;20.90;11.17;;;7.80;99.90;;;;;;5018380;28;20344;-75
2024/02/16 00:37:51;;;;;;;21.00;10.30;;;7.80;99.90;;;;;;5031692;28;20566;-77
2024/02/16 00:40:43;;;;;;;20.43;10.93;;;7.80;99.90;;;;;;5032449;28;20195;-76
2024/02/16 00:43:30;;;;;;;22.73;10.83;;;7.80;99.90;;;;;;5017262;28;20215;-77
2024/02/16 00:46:18;;;;;;;21.23;11.10;;;7.80;99.90;;;;;;5031390;28;20202;-76
2024/02/16 00:49:06;;;;;;;19.37;10.63;;;7.80;99.90;;;;;;5031154;28;20195;-77
2024/02/16 00:51:53;;;;;;;19.23;10.37;;;7.80;99.90;;;;;;5031269;28;20234;-77
2024/02/16 00:54:46;;;;;;;21.40;10.17;;;7.90;99.90;;;;;;5032280;28;20203;-76
2024/02/16 00:57:34;;;;;;;19.97;10.43;;;7.70;99.90;;;;;;5017644;28;20583;-77
2024/02/16 01:00:23;;;;;;;18.97;10.00;;;7.70;99.90;;;;;;5018168;28;20242;-77
2024/02/16 01:03:12;;;;;;;20.23;9.67;;;7.70;99.90;;;;;;5032001;28;20205;-76
2024/02/16 01:06:00;;;;;;;22.70;10.17;;;7.60;99.90;;;;;;5031106;28;20621;-77
2024/02/16 01:08:48;;;;;;;16.63;9.53;;;7.60;99.90;;;;;;5017554;28;20207;-77
2024/02/16 01:11:36;;;;;;;16.43;9.43;;;7.60;99.90;;;;;;5030963;28;20220;-77
2024/02/16 01:14:23;;;;;;;18.23;9.43;;;7.60;99.90;;;;;;5031564;28;20675;-77
2024/02/16 01:17:10;;;;;;;18.07;10.10;;;7.60;99.90;;;;;;5030799;28;20352;-77
2024/02/16 01:19:58;;;;;;;18.57;9.93;;;7.60;99.90;;;;;;5032026;28;20227;-78
2024/02/16 01:22:46;;;;;;;17.77;9.53;;;7.50;99.90;;;;;;5030915;28;20217;-76
2024/02/16 01:25:34;;;;;;;20.17;9.63;;;7.50;99.90;;;;;;5031348;28;20203;-77
2024/02/16 01:28:22;;;;;;;16.77;8.97;;;7.50;99.90;;;;;;5031865;28;20236;-77
2024/02/16 01:31:10;;;;;;;17.83;9.63;;;7.40;99.90;;;;;;5019187;28;20556;-78
2024/02/16 01:33:57;;;;;;;17.73;9.03;;;7.40;99.90;;;;;;5016625;28;20209;-77
2024/02/16 01:36:45;;;;;;;15.83;9.13;;;7.30;99.90;;;;;;5030753;28;20395;-77
2024/02/16 01:39:32;;;;;;;16.13;9.23;;;7.20;99.90;;;;;;5030666;28;20226;-77
2024/02/16 01:42:20;;;;;;;16.40;9.00;;;7.20;99.90;;;;;;5030869;28;20211;-77
2024/02/16 01:45:12;;;;;;;17.30;9.33;;;7.10;99.90;;;;;;5031746;28;20671;-77
2024/02/16 01:48:00;;;;;;;19.37;9.33;;;7.10;99.90;;;;;;5030266;28;20206;-77
2024/02/16 01:50:49;;;;;;;16.07;8.73;;;7.10;99.90;;;;;;5031657;28;20328;-77
2024/02/16 01:53:37;;;;;;;17.70;8.57;;;7.00;99.90;;;;;;5016893;28;20282;-77
2024/02/16 01:56:26;;;;;;;15.97;8.20;;;7.00;99.90;;;;;;5034994;28;20275;-77
2024/02/16 01:59:14;;;;;;;17.77;8.57;;;7.00;99.90;;;;;;5021548;28;20236;-77
2024/02/16 02:02:01;;;;;;;15.20;8.17;;;6.90;99.90;;;;;;5034637;28;20327;-76
2024/02/16 02:04:49;;;;;;;16.93;8.53;;;6.90;99.90;;;;;;5034139;28;20237;-76
2024/02/16 02:07:37;;;;;;;15.63;8.53;;;6.80;99.90;;;;;;5035513;28;20482;-77
2024/02/16 02:10:24;;;;;;;15.33;8.17;;;6.80;99.90;;;;;;5034453;28;20206;-76
2024/02/16 02:13:12;;;;;;;16.23;7.67;;;6.70;99.90;;;;;;5033998;28;20224;-77
2024/02/16 02:16:00;;;;;;;15.20;7.87;;;6.80;99.90;;;;;;5035233;28;20250;-77
2024/02/16 02:18:48;;;;;;;14.90;8.23;;;6.80;99.90;;;;;;5045251;28;20226;-77
2024/02/16 02:21:36;;;;;;;17.10;7.90;;;6.80;99.90;;;;;;5053459;28;20761;-77
2024/02/16 02:24:23;;;;;;;13.70;7.73;;;6.70;99.90;;;;;;5054136;28;20682;-77
2024/02/16 02:27:11;;;;;;;15.03;7.80;;;6.70;99.90;;;;;;5055256;28;20610;-77
2024/02/16 02:29:59;;;;;;;12.77;7.43;;;6.70;99.90;;;;;;5053901;28;20284;-77
2024/02/16 02:32:47;;;;;;;13.77;7.20;;;6.60;99.90;;;;;;5053712;28;21025;-75
2024/02/16 02:35:34;;;;;;;14.73;7.93;;;6.70;99.90;;;;;;5039650;28;20691;-76
2024/02/16 02:38:22;;;;;;;14.07;7.70;;;6.60;99.90;;;;;;5053759;28;20324;-76
2024/02/16 02:41:09;;;;;;;13.97;7.90;;;6.60;99.90;;;;;;5053222;28;20200;-77
2024/02/16 02:43:57;;;;;;;15.30;7.70;;;6.60;99.90;;;;;;5054900;28;20308;-76
2024/02/16 02:46:44;;;;;;;14.23;7.80;;;6.60;99.90;;;;;;5040054;28;20205;-77
2024/02/16 02:49:34;;;;;;;16.43;7.97;;;6.50;99.90;;;;;;5054112;28;20641;-77
2024/02/16 02:52:23;;;;;;;13.63;7.10;;;6.40;99.90;;;;;;5052724;28;20225;-77
2024/02/16 02:55:11;;;;;;;13.37;7.23;;;6.40;99.90;;;;;;5054010;28;20280;-77
2024/02/16 02:57:58;;;;;;;13.90;7.57;;;6.40;99.90;;;;;;5052490;28;20582;-77
2024/02/16 03:00:45;;;;;;;15.80;7.87;;;6.40;99.90;;;;;;5053915;28;20202;-77
2024/02/16 03:03:33;;;;;;;13.30;7.53;;;6.40;99.90;;;;;;5053324;28;20201;-77
2024/02/16 03:06:21;;;;;;;14.50;7.70;;;6.40;99.90;;;;;;5052654;28;20212;-76
2024/02/16 03:09:10;;;;;;;12.90;7.83;;;6.30;99.90;;;;;;5052621;28;20559;-77
2024/02/16 03:11:58;;;;;;;15.07;7.13;;;6.30;99.90;;;;;;5052941;28;20211;-77
2024/02/16 03:14:45;;;;;;;13.97;7.60;;;6.30;99.90;;;;;;5053718;28;20202;-77
2024/02/16 03:17:32;;;;;;;12.60;7.30;;;6.20;99.90;;;;;;5051244;28;20646;-77
2024/02/16 03:20:21;;;;;;;13.40;7.67;;;6.20;99.90;;;;;;5033359;28;20195;-77
2024/02/16 03:23:08;;;;;;;15.73;7.67;;;6.20;99.90;;;;;;5030775;28;20213;-77
2024/02/16 03:25:56;;;;;;;15.17;7.83;;;6.20;99.90;;;;;;5032997;28;20385;-77
2024/02/16 03:28:46;;;;;;;13.97;7.30;;;6.10;99.90;;;;;;5032825;28;20682;-77
2024/02/16 03:31:35;;;;;;;13.87;7.23;;;6.10;99.90;;;;;;5033357;28;20198;-77
2024/02/16 03:34:23;;;;;;;14.57;8.10;;;6.10;99.90;;;;;;5033475;28;20223;-77
2024/02/16 03:37:10;;;;;;;13.40;7.70;;;6.00;99.90;;;;;;5031732;28;20201;-77
2024/02/16 03:39:58;;;;;;;12.60;7.17;;;6.00;99.90;;;;;;5032718;28;20200;-77
2024/02/16 03:42:45;;;;;;;15.03;7.43;;;6.00;99.90;;;;;;5032691;28;20222;-77
2024/02/16 03:45:32;;;;;;;15.43;7.80;;;6.00;99.90;;;;;;5032515;28;20307;-77
2024/02/16 03:48:20;;;;;;;14.03;7.60;;;5.90;99.90;;;;;;5033069;28;20200;-76
2024/02/16 03:51:07;;;;;;;17.73;7.70;;;5.80;99.90;;;;;;5032341;28;20204;-77
2024/02/16 03:53:55;;;;;;;14.97;8.10;;;5.90;99.90;;;;;;5032511;28;20230;-77
2024/02/16 03:56:42;;;;;;;17.30;8.40;;;5.80;99.90;;;;;;5031617;28;20221;-77
2024/02/16 03:59:29;;;;;;;14.03;7.63;;;5.80;99.90;;;;;;5031149;28;20729;-76
2024/02/16 04:02:17;;;;;;;13.83;8.03;;;5.70;99.90;;;;;;5031754;28;20191;-76
2024/02/16 04:05:05;;;;;;;14.60;7.70;;;5.70;99.90;;;;;;5033713;28;20192;-76
2024/02/16 04:07:52;;;;;;;13.50;7.83;;;5.70;99.90;;;;;;5031690;28;20206;-77
2024/02/16 04:10:40;;;;;;;16.80;8.23;;;5.70;99.90;;;;;;5032713;28;20198;-77
2024/02/16 04:13:27;;;;;;;16.53;8.00;;;5.70;99.90;;;;;;5031587;28;20277;-77
2024/02/16 04:16:14;;;;;;;16.33;8.23;;;5.70;99.90;;;;;;5017463;28;20191;-77
2024/02/16 04:19:02;;;;;;;13.13;8.33;;;5.70;99.90;;;;;;5032007;28;20234;-77
2024/02/16 04:21:49;;;;;;;14.70;8.10;;;5.60;99.90;;;;;;5033188;28;20202;-77
2024/02/16 04:24:37;;;;;;;17.73;8.63;;;5.50;99.90;;;;;;5030730;28;20208;-77
2024/02/16 04:27:24;;;;;;;16.80;8.13;;;5.50;99.90;;;;;;5031210;28;20231;-77
2024/02/16 04:30:12;;;;;;;15.20;9.00;;;5.50;99.90;;;;;;5031878;28;20226;-77
2024/02/16 04:33:00;;;;;;;16.40;8.40;;;5.60;99.90;;;;;;5031210;28;20230;-77
2024/02/16 04:35:50;;;;;;;18.30;8.80;;;5.50;99.90;;;;;;5031207;28;20276;-77
2024/02/16 04:38:38;;;;;;;15.87;8.10;;;5.50;99.90;;;;;;5031408;28;20197;-77
2024/02/16 04:41:25;;;;;;;17.17;8.40;;;5.50;99.90;;;;;;5031187;28;20238;-76
2024/02/16 04:44:12;;;;;;;13.93;8.43;;;5.50;99.90;;;;;;5031182;28;20645;-77
2024/02/16 04:47:00;;;;;;;15.43;8.07;;;5.60;99.90;;;;;;5032552;28;20202;-77
2024/02/16 04:49:47;;;;;;;14.50;7.93;;;5.50;99.90;;;;;;5032346;28;20198;-77
2024/02/16 04:52:37;;;;;;;15.60;7.90;;;5.50;99.90;;;;;;5032291;28;20200;-76
2024/02/16 04:55:24;;;;;;;13.17;7.90;;;5.40;99.90;;;;;;5030986;28;20250;-77
2024/02/16 04:58:12;;;;;;;14.63;7.90;;;5.40;99.90;;;;;;5031727;28;20219;-77
2024/02/16 05:00:59;;;;;;;16.60;8.60;;;5.40;99.90;;;;;;5015946;28;20280;-77
2024/02/16 05:03:47;;;;;;;14.57;8.00;;;5.40;99.90;;;;;;5031800;28;20195;-76
2024/02/16 05:06:39;;;;;;;17.30;8.50;;;5.40;99.90;;;;;;5032945;28;20674;-77
2024/02/16 05:09:27;;;;;;;16.73;8.17;;;5.30;99.90;;;;;;5030518;28;20229;-77
2024/02/16 05:12:15;;;;;;;17.13;8.67;;;5.30;99.90;;;;;;5030721;28;20222;-77
2024/02/16 05:15:03;;;;;;;16.90;8.17;;;5.20;99.90;;;;;;5030874;28;20197;-77
2024/02/16 05:17:51;;;;;;;15.27;8.67;;;5.20;99.90;;;;;;5016688;28;20237;-77
2024/02/16 05:20:40;;;;;;;14.90;8.20;;;5.20;99.90;;;;;;5031367;28;20289;-77
2024/02/16 05:23:27;;;;;;;16.40;8.17;;;5.20;99.90;;;;;;5016823;28;20751;-77
2024/02/16 05:26:14;;;;;;;16.90;8.93;;;5.10;99.90;;;;;;5030712;28;20191;-77
2024/02/16 05:29:02;;;;;;;18.47;9.23;;;5.10;99.90;;;;;;5032841;28;20574;-77
2024/02/16 05:31:51;;;;;;;17.30;9.10;;;5.10;99.90;;;;;;5033495;28;20200;-76
2024/02/16 05:34:39;;;;;;;14.63;8.50;;;5.20;99.90;;;;;;5034877;28;20215;-77
2024/02/16 05:37:26;;;;;;;15.63;8.50;;;5.20;99.90;;;;;;5035173;28;20194;-77
2024/02/16 05:43:27;;;;;;;17.33;8.67;;;5.10;99.90;;;;;;5030697;28;20595;-76
2024/02/16 05:46:16;;;;;;;18.33;8.90;;;5.10;99.90;;;;;;5034144;28;20206;-76
2024/02/16 05:49:07;;;;;;;15.80;9.20;;;5.20;99.90;;;;;;5034610;28;20319;-77
2024/02/16 05:55:00;;;;;;;17.00;8.90;;;5.20;99.90;;;;;;5037328;28;20188;-77
2024/02/16 05:57:48;;;;;;;17.80;9.30;;;5.20;99.90;;;;;;5035608;28;20310;-77
2024/02/16 06:00:35;;;;;;;19.17;9.83;;;5.20;99.90;;;;;;5034210;28;20654;-77
2024/02/16 06:03:23;;;;;;;17.53;8.83;;;5.20;99.90;;;;;;5034543;28;20198;-77
2024/02/16 06:06:10;;;;;;;20.10;9.30;;;5.20;99.90;;;;;;5034285;28;20202;-77
2024/02/16 06:08:58;;;;;;;21.97;10.23;;;5.10;99.90;;;;;;5033401;28;20196;-77
2024/02/16 06:11:46;;;;;;;19.93;9.87;;;5.10;99.90;;;;;;5034803;28;20314;-76
2024/02/16 06:14:34;;;;;;;18.93;9.67;;;5.10;99.90;;;;;;5034275;28;20220;-76
2024/02/16 06:17:21;;;;;;;21.30;9.07;;;5.10;99.90;;;;;;5034252;28;20272;-76
2024/02/16 06:20:13;;;;;;;17.07;9.53;;;5.10;99.90;;;;;;5033496;28;20196;-77
2024/02/16 06:23:03;;;;;;;17.30;9.53;;;5.10;99.90;;;;;;5034179;28;20199;-77
2024/02/16 06:25:51;;;;;;;16.13;9.50;;;5.10;99.90;;;;;;5034646;28;20280;-77
2024/02/16 06:28:38;;;;;;;16.87;9.17;;;5.10;99.90;;;;;;5033600;28;20195;-77
2024/02/16 06:31:26;;;;;;;18.00;9.50;;;5.10;99.90;;;;;;5034020;28;20282;-77
2024/02/16 06:34:16;;;;;;;19.23;9.97;;;5.10;99.90;;;;;;5033939;28;20216;-77
2024/02/16 06:37:04;;;;;;;20.70;9.90;;;5.20;99.90;;;;;;5032665;28;20285;-77
2024/02/16 06:39:51;;;;;;;21.83;9.97;;;5.20;99.90;;;;;;5032831;28;20193;-77
2024/02/16 06:42:39;;;;;;;17.93;9.90;;;5.20;99.90;;;;;;5033654;28;20709;-77
2024/02/16 06:45:26;;;;;;;19.93;9.83;;;5.20;99.90;;;;;;5033041;28;20200;-77
2024/02/16 06:48:14;;;;;;;19.33;9.80;;;5.20;99.90;;;;;;5033879;28;20201;-77
2024/02/16 06:51:02;;;;;;;21.87;10.27;;;5.20;99.90;;;;;;5034235;28;20633;-76
2024/02/16 06:53:51;;;;;;;22.03;10.30;;;5.20;99.90;;;;;;5033601;28;20277;-76
2024/02/16 06:56:38;;;;;;;19.77;10.30;;;5.20;99.90;;;;;;5031972;28;20225;-77
2024/02/16 06:59:25;;;;;;;17.67;9.03;;;5.30;99.90;;;;;;5032835;28;20192;-76
2024/02/16 07:02:14;;;;;;;23.87;10.47;;;5.30;99.90;;;;;;5033370;28;20191;-76
2024/02/16 07:05:02;;;;;;;19.03;9.93;;;5.40;99.90;;;;;;5033107;28;20194;-77
2024/02/16 07:07:50;;;;;;;19.03;10.30;;;5.40;99.90;;;;;;5033280;28;20194;-76
2024/02/16 07:10:37;;;;;;;20.17;9.90;;;5.40;99.90;;;;;;5033319;28;20706;-77
2024/02/16 07:13:24;;;;;;;19.07;10.00;;;5.50;99.90;;;;;;5032425;28;20234;-76
2024/02/16 07:16:12;;;;;;;19.17;10.23;;;5.50;99.90;;;;;;5032593;28;20193;-77
2024/02/16 07:19:00;;;;;;;21.57;10.53;;;5.60;99.90;;;;;;5032924;28;20282;-76
2024/02/16 07:21:48;;;;;;;21.20;10.50;;;5.70;99.90;;;;;;5031810;28;20191;-76
2024/02/16 07:24:36;;;;;;;20.43;10.13;;;5.80;99.90;;;;;;5032432;28;20207;-77
2024/02/16 07:27:24;;;;;;;21.03;10.20;;;5.90;99.90;;;;;;5019572;28;20217;-77
2024/02/16 07:30:13;;;;;;;20.33;10.33;;;5.90;99.90;;;;;;5032743;28;20236;-77
2024/02/16 07:33:07;;;;;;;23.87;9.87;;;5.90;99.90;;;;;;5019718;28;20206;-76
2024/02/16 07:35:55;;;;;;;20.23;10.00;;;6.00;99.90;;;;;;5032672;28;20193;-77
2024/02/16 07:38:43;;;;;;;20.10;10.47;;;6.20;99.90;;;;;;5033197;28;20198;-77
2024/02/16 07:41:30;;;;;;;23.13;10.17;;;6.30;99.90;;;;;;5032699;28;20225;-76
2024/02/16 07:44:18;;;;;;;19.90;9.80;;;6.40;99.90;;;;;;5032567;28;20198;-76
2024/02/16 07:47:05;;;;;;;19.73;10.00;;;6.40;99.90;;;;;;5032240;28;20211;-76
2024/02/16 07:49:53;;;;;;;22.60;10.27;;;6.50;99.90;;;;;;5018386;28;20659;-76
2024/02/16 07:52:40;;;;;;;19.47;10.10;;;6.50;99.90;;;;;;5017138;28;20205;-78
2024/02/16 07:55:28;;;;;;;21.70;10.30;;;6.70;99.90;;;;;;5031940;28;20218;-76
2024/02/16 07:58:15;;;;;;;20.37;10.43;;;6.80;99.90;;;;;;5018858;28;20690;-76
2024/02/16 08:01:03;;;;;;;21.63;10.13;;;6.90;99.90;;;;;;5017988;28;20216;-76
2024/02/16 08:03:50;;;;;;;18.77;10.50;;;6.90;99.90;;;;;;5030917;28;20658;-76
2024/02/16 08:06:38;;;;;;;22.93;10.47;;;6.90;99.90;;;;;;5032784;28;20226;-76
2024/02/16 08:09:26;;;;;;;21.67;10.13;;;6.90;99.90;;;;;;5017701;28;20191;-76
2024/02/16 08:12:14;;;;;;;20.77;10.13;;;7.00;99.90;;;;;;5032846;28;20705;-76
2024/02/16 08:15:03;;;;;;;23.83;10.67;;;7.10;99.90;;;;;;5031320;28;20218;-76
2024/02/16 08:17:52;;;;;;;20.33;10.27;;;7.20;99.90;;;;;;5030843;28;20546;-76
2024/02/16 08:20:40;;;;;;;19.13;10.10;;;7.70;99.90;;;;;;5031593;28;20554;-76
2024/02/16 08:23:30;;;;;;;21.40;10.43;;;8.30;99.90;;;;;;5005497;28;20397;-77
2024/02/16 08:26:17;;;;;;;20.80;10.33;;;8.90;99.90;;;;;;5031222;28;20751;-76
2024/02/16 08:29:05;;;;;;;16.47;9.53;;;9.20;99.90;;;;;;5030942;28;20198;-77
2024/02/16 08:31:54;;;;;;;16.90;9.50;;;9.50;99.90;;;;;;5031758;28;20202;-75
2024/02/16 08:34:42;;;;;;;16.87;9.47;;;9.70;99.90;;;;;;5031137;28;20361;-76
2024/02/16 08:37:29;;;;;;;18.50;9.53;;;9.50;99.90;;;;;;5017368;28;20288;-76
2024/02/16 08:40:17;;;;;;;26.03;10.80;;;9.80;99.90;;;;;;5031844;28;20679;-77
2024/02/16 08:43:07;;;;;;;19.03;9.83;;;10.10;99.90;;;;;;5031373;28;20215;-77
2024/02/16 08:45:54;;;;;;;19.60;9.10;;;10.40;99.90;;;;;;5031715;28;20210;-76
2024/02/16 08:48:45;;;;;;;18.53;9.90;;;10.60;99.90;;;;;;5031237;28;20191;-77
2024/02/16 08:51:33;;;;;;;17.00;9.37;;;10.80;99.90;;;;;;5031852;28;20204;-77
2024/02/16 08:54:21;;;;;;;19.83;9.83;;;10.90;99.90;;;;;;5031248;28;20700;-77
2024/02/16 08:57:09;;;;;;;17.63;9.53;;;10.90;99.90;;;;;;5031721;28;20219;-77
2024/02/16 08:59:57;;;;;;;19.13;9.53;;;10.90;99.90;;;;;;5018120;28;20195;-77
2024/02/16 09:02:46;;;;;;;17.73;9.63;;;11.20;99.90;;;;;;5030788;28;20211;-77
2024/02/16 09:05:33;;;;;;;17.83;9.23;;;11.30;99.90;;;;;;5034872;28;20278;-77
2024/02/16 09:08:21;;;;;;;20.10;8.93;;;11.70;99.90;;;;;;5035464;28;20675;-77
2024/02/16 09:11:08;;;;;;;16.97;8.67;;;11.90;99.90;;;;;;5034967;28;20203;-77
2024/02/16 09:13:56;;;;;;;15.87;8.70;;;12.10;99.90;;;;;;5035074;28;20218;-77
2024/02/16 09:16:43;;;;;;;18.47;8.87;;;12.20;99.90;;;;;;5034948;28;20195;-76
2024/02/16 09:19:31;;;;;;;21.60;9.40;;;12.70;99.90;;;;;;5035312;28;20582;-77
2024/02/16 09:22:18;;;;;;;20.73;9.83;;;13.10;99.90;;;;;;5035114;28;20196;-77
2024/02/16 09:25:06;;;;;;;19.33;9.67;;;13.30;99.90;;;;;;5035767;28;20206;-77
2024/02/16 09:27:54;;;;;;;17.80;9.60;;;13.70;99.90;;;;;;5034962;28;20231;-77
2024/02/16 09:30:41;;;;;;;22.43;10.87;;;13.70;99.90;;;;;;5021411;28;20678;-76
2024/02/16 09:33:29;;;;;;;18.67;10.07;;;14.00;99.90;;;;;;5034964;28;20208;-77
2024/02/16 09:36:17;;;;;;;18.17;9.27;;;14.30;99.90;;;;;;5034653;28;20213;-77
2024/02/16 09:39:05;;;;;;;17.47;10.40;;;14.60;99.90;;;;;;5033929;28;20192;-77
2024/02/16 09:41:54;;;;;;;22.23;10.90;;;14.80;99.90;;;;;;5034639;28;20723;-77
2024/02/16 09:44:42;;;;;;;18.30;10.10;;;15.00;99.90;;;;;;5034950;28;20738;-77
2024/02/16 09:47:34;;;;;;;20.00;10.43;;;15.40;99.90;;;;;;5034138;28;20277;-77
2024/02/16 09:50:22;;;;;;;19.43;10.30;;;15.60;99.90;;;;;;5033598;28;20723;-78
2024/02/16 09:53:10;;;;;;;20.23;9.67;;;15.70;99.90;;;;;;5020115;28;20203;-79
2024/02/16 09:55:58;;;;;;;21.10;9.83;;;15.80;99.90;;;;;;5021222;28;20235;-79
2024/02/16 09:58:45;;;;;;;17.33;9.80;;;16.10;99.90;;;;;;5034432;28;20199;-78
2024/02/16 10:01:33;;;;;;;19.93;10.03;;;16.20;99.90;;;;;;5034445;28;20261;-80
2024/02/16 10:04:23;;;;;;;17.90;9.57;;;16.40;99.90;;;;;;5034265;28;20277;-78
2024/02/16 10:07:11;;;;;;;19.53;9.90;;;16.70;99.90;;;;;;5034499;28;20346;-79
2024/02/16 10:10:00;;;;;;;16.60;9.67;;;16.80;99.90;;;;;;5033237;28;20230;-77
2024/02/16 10:12:48;;;;;;;21.97;10.10;;;16.80;99.90;;;;;;5034122;28;20245;-77
2024/02/16 10:15:35;;;;;;;19.20;10.20;;;16.90;99.90;;;;;;5032911;28;20612;-77
2024/02/16 10:18:28;;;;;;;21.83;9.77;;;17.00;99.90;;;;;;5033538;28;20231;-77
2024/02/16 10:21:28;;;;;;;17.90;10.00;;;17.30;99.90;;;;;;5033449;28;20192;-77
2024/02/16 10:24:21;;;;;;;17.90;9.40;;;17.20;99.90;;;;;;5034563;28;20195;-77
2024/02/16 10:27:16;;;;;;;17.77;9.83;;;17.20;99.90;;;;;;5032845;28;20227;-77
2024/02/16 10:30:12;;;;;;;15.37;8.97;;;17.40;99.90;;;;;;5034690;28;20241;-77
2024/02/16 10:33:00;;;;;;;17.93;10.00;;;17.70;99.90;;;;;;5034080;28;20195;-77
2024/02/16 10:35:49;;;;;;;18.37;9.70;;;17.80;99.90;;;;;;5019739;28;20219;-77
2024/02/16 10:38:39;;;;;;;18.73;10.03;;;17.80;99.90;;;;;;5033726;28;20655;-77
2024/02/16 10:41:31;;;;;;;19.53;10.13;;;18.00;99.60;;;;;;5033825;28;20662;-77
2024/02/16 10:44:18;;;;;;;17.87;10.37;;;18.00;99.30;;;;;;5033830;28;20616;-77
2024/02/16 10:47:07;;;;;;;16.07;9.70;;;18.00;99.60;;;;;;5020288;28;20274;-77
2024/02/16 10:49:55;;;;;;;21.17;10.00;;;18.30;98.60;;;;;;5007080;28;20203;-83
2024/02/16 10:52:46;;;;;;;16.10;9.80;;;18.40;98.10;;;;;;5034170;28;20675;-84
2024/02/16 10:55:34;;;;;;;19.27;10.37;;;18.30;98.30;;;;;;5018576;28;20232;-85
2024/02/16 10:58:22;;;;;;;17.90;9.70;;;18.50;98.20;;;;;;5032477;28;20219;-82
2024/02/16 11:01:12;;;;;;;18.33;10.43;;;18.70;97.70;;;;;;5033379;28;20195;-82
2024/02/16 11:04:03;;;;;;;20.10;10.00;;;18.60;97.70;;;;;;5033480;28;20204;-82
2024/02/16 11:06:59;;;;;;;18.30;10.00;;;18.90;97.30;;;;;;5032488;28;20211;-82
2024/02/16 11:09:48;;;;;;;16.03;9.50;;;19.10;96.60;;;;;;5019729;28;20204;-83
2024/02/16 11:12:36;;;;;;;18.30;10.17;;;19.40;96.50;;;;;;5033594;28;20220;-82
2024/02/16 11:15:32;;;;;;;18.53;9.87;;;19.60;95.80;;;;;;5033214;28;20227;-81
2024/02/16 11:18:20;;;;;;;19.93;10.43;;;19.80;95.60;;;;;;5033781;28;20353;-82
2024/02/16 11:21:12;;;;;;;16.63;9.50;;;20.00;94.80;;;;;;5032535;28;20669;-81
2024/02/16 11:24:08;;;;;;;17.40;10.10;;;20.00;95.00;;;;;;5032527;28;20225;-82
2024/02/16 11:26:56;;;;;;;16.47;9.33;;;19.90;94.70;;;;;;5033350;28;20258;-82
2024/02/16 11:29:44;;;;;;;16.77;9.30;;;19.80;94.50;;;;;;5032304;28;20200;-82
2024/02/16 11:32:34;;;;;;;17.57;10.03;;;19.50;95.00;;;;;;5033495;28;20283;-81
2024/02/16 11:35:21;;;;;;;16.53;9.17;;;18.90;96.00;;;;;;5032728;28;20227;-81
2024/02/16 11:38:09;;;;;;;16.63;9.47;;;18.90;96.50;;;;;;5031991;28;20218;-81
2024/02/16 11:40:59;;;;;;;16.53;9.60;;;18.90;96.60;;;;;;5033050;28;20278;-82
2024/02/16 11:43:46;;;;;;;18.97;10.20;;;18.70;96.90;;;;;;5031932;28;20203;-82
2024/02/16 11:46:35;;;;;;;16.37;9.40;;;18.70;97.30;;;;;;5032555;28;20206;-83
2024/02/16 11:49:23;;;;;;;18.10;10.53;;;19.50;96.10;;;;;;5033250;28;20200;-82
2024/02/16 11:52:10;;;;;;;17.73;10.00;;;19.80;95.30;;;;;;5032832;28;20195;-82
2024/02/16 11:55:00;;;;;;;16.97;9.77;;;19.50;96.20;;;;;;5031013;28;20223;-81
2024/02/16 11:57:50;;;;;;;17.50;10.17;;;20.10;95.00;;;;;;5031737;28;20631;-81
2024/02/16 12:00:40;;;;;;;16.33;9.93;;;20.60;94.20;;;;;;5032232;28;20196;-84
2024/02/16 12:03:28;;;;;;;18.20;10.30;;;20.00;94.40;;;;;;5017642;28;20218;-83
2024/02/16 12:06:22;;;;;;;17.47;10.43;;;20.40;94.20;;;;;;5032192;28;20563;-83
2024/02/16 12:09:10;;;;;;;18.67;11.23;;;21.20;93.10;;;;;;5018242;28;20199;-82
2024/02/16 12:11:57;;;;;;;19.83;10.77;;;21.70;91.20;;;;;;5032099;28;20268;-84
2024/02/16 12:14:45;;;;;;;15.07;9.90;;;21.20;91.90;;;;;;5032485;28;20215;-83
2024/02/16 12:17:32;;;;;;;16.57;9.70;;;21.00;91.90;;;;;;5032770;28;20680;-83
2024/02/16 12:20:20;;;;;;;15.70;9.93;;;21.00;92.00;;;;;;5030340;28;20271;-82
2024/02/16 12:23:12;;;;;;;15.30;9.83;;;21.20;91.90;;;;;;5031960;28;20210;-82
2024/02/16 12:26:01;;;;;;;16.63;9.93;;;21.80;90.90;;;;;;5029839;28;20712;-82
2024/02/16 12:28:50;;;;;;;16.00;10.00;;;21.80;90.50;;;;;;5030895;28;20241;-83
2024/02/16 12:31:38;;;;;;;15.53;9.50;;;22.40;89.60;;;;;;5031473;28;20606;-84
2024/02/16 12:34:26;;;;;;;15.65;9.70;;;22.80;86.90;;;;;;5030884;28;20196;-86
2024/02/16 12:37:13;;;;;;;15.73;9.53;;;22.80;86.00;;;;;;5017254;28;20195;-83
2024/02/16 12:40:01;;;;;;;14.93;9.43;;;22.50;86.30;;;;;;5031435;28;20199;-81
2024/02/16 12:42:49;;;;;;;17.17;9.73;;;22.30;86.30;;;;;;5031039;28;20215;-82
2024/02/16 12:45:37;;;;;;;16.63;9.60;;;22.60;85.80;;;;;;5031968;28;20195;-87
2024/02/16 12:48:24;;;;;;;16.43;9.53;;;22.90;84.70;;;;;;5031602;28;20668;-71
2024/02/16 12:51:12;;;;;;;15.63;9.67;;;23.10;84.20;;;;;;5032149;28;20228;-78
2024/02/16 12:54:03;;;;;;;16.60;10.00;;;22.70;84.20;;;;;;5031085;28;20748;-74
2024/02/16 12:56:51;;;;;;;16.83;9.80;;;21.90;86.20;;;;;;5032342;28;20204;-73
2024/02/16 12:59:38;;;;;;;14.70;9.17;;;21.20;87.70;;;;;;5017330;28;20651;-71
2024/02/16 13:02:27;;;;;;;16.93;9.53;;;21.40;88.60;;;;;;5031925;28;20195;-72
2024/02/16 13:05:14;;;;;;;19.40;10.20;;;21.70;88.50;;;;;;5031294;28;20272;-76
2024/02/16 13:08:02;;;;;;;18.13;10.10;;;21.50;87.70;;;;;;5030402;28;20640;-79
2024/02/16 13:10:50;;;;;;;15.87;9.90;;;21.40;87.90;;;;;;5032281;28;20207;-79
2024/02/16 13:13:37;;;;;;;17.50;10.10;;;21.40;88.50;;;;;;5031194;28;20206;-79
2024/02/16 13:16:26;;;;;;;20.63;10.20;;;21.50;87.30;;;;;;5030762;28;20246;-80
2024/02/16 13:19:14;;;;;;;18.33;10.80;;;21.10;88.50;;;;;;5032839;28;20315;-82
2024/02/16 13:22:01;;;;;;;16.23;10.07;;;21.00;89.20;;;;;;5031441;28;20716;-81
2024/02/16 13:24:49;;;;;;;14.67;9.60;;;20.80;90.00;;;;;;5030762;28;20684;-80
2024/02/16 13:27:36;;;;;;;16.20;9.83;;;20.70;90.20;;;;;;5031251;28;20225;-78
2024/02/16 13:30:24;;;;;;;20.87;10.23;;;20.60;90.20;;;;;;5030610;28;20211;-81
2024/02/16 13:33:12;;;;;;;16.70;10.57;;;20.20;90.80;;;;;;5031256;28;20227;-79
2024/02/16 13:35:59;;;;;;;17.27;9.77;;;19.60;91.50;;;;;;5031035;28;20227;-80
2024/02/16 13:38:47;;;;;;;19.37;10.03;;;19.50;92.10;;;;;;5031914;28;21146;-78
2024/02/16 13:41:34;;;;;;;15.93;9.23;;;19.00;92.70;;;;;;5018136;28;20305;-81
2024/02/16 13:44:22;;;;;;;16.63;9.80;;;18.90;92.80;;;;;;5030547;28;20663;-82
2024/02/16 13:47:10;;;;;;;16.17;8.83;;;18.70;93.30;;;;;;5015369;28;20253;-78
2024/02/16 13:49:58;;;;;;;18.27;9.23;;;18.80;93.70;;;;;;5031939;28;20326;-81
2024/02/16 13:52:46;;;;;;;17.17;9.20;;;18.50;93.90;;;;;;5020754;28;20199;-82
2024/02/16 13:55:34;;;;;;;17.53;9.03;;;18.30;94.50;;;;;;5034528;28;20223;-81
2024/02/16 13:58:21;;;;;;;15.50;8.80;;;18.50;94.20;;;;;;5034525;28;20219;-86
2024/02/16 14:01:09;;;;;;;14.87;8.53;;;18.40;94.20;;;;;;5034499;28;20218;-82
2024/02/16 14:03:57;;;;;;;12.37;7.93;;;18.10;94.70;;;;;;5033794;28;20275;-82
2024/02/16 14:06:44;;;;;;;13.53;8.20;;;17.50;95.30;;;;;;5034667;28;20199;-82
2024/02/16 14:09:32;;;;;;;15.67;8.53;;;17.30;95.90;;;;;;5034943;28;20191;-82
2024/02/16 14:12:21;;;;;;;13.00;7.73;;;16.70;97.70;;;;;;5034234;28;20695;-82
2024/02/16 14:15:15;;;;;;;16.03;8.00;;;16.40;98.10;;;;;;5033585;28;20608;-82
2024/02/16 14:18:03;;;;;;;13.83;7.30;;;16.30;98.70;;;;;;5033550;28;20254;-82
2024/02/16 14:21:01;;;;;;;14.10;7.90;;;16.20;99.10;;;;;;5033995;28;20221;-81
2024/02/16 14:23:49;;;;;;;12.50;6.80;;;15.60;99.90;;;;;;5034682;28;20195;-81
2024/02/16 14:26:37;;;;;;;13.83;7.47;;;15.50;99.90;;;;;;5033214;28;20219;-82
2024/02/16 14:29:25;;;;;;;12.37;7.97;;;15.50;99.90;;;;;;5033954;28;20633;-81
2024/02/16 14:32:12;;;;;;;16.80;7.73;;;15.30;99.90;;;;;;5034008;28;20652;-82
2024/02/16 14:35:00;;;;;;;12.93;7.40;;;14.90;99.90;;;;;;5034430;28;20276;-81